createdAt,value
2018-09-30T00:01:34.641Z,96064.27
2018-09-30T00:04:03.857Z,96052.34
2018-09-30T00:06:32.933Z,96053.98
2018-09-30T00:09:02.013Z,96052.33
2018-09-30T00:11:31.124Z,96052.03
2018-09-30T00:14:00.313Z,96053.22
2018-09-30T00:16:29.376Z,96045.59
2018-09-30T00:18:58.567Z,96048.59
2018-09-30T00:21:27.704Z,96049.98
2018-09-30T00:24:02.100Z,96051.38
2018-09-30T00:26:36.547Z,96052.92
2018-09-30T00:29:05.645Z,96048.66
2018-09-30T00:31:34.890Z,96046.33
2018-09-30T00:34:09.256Z,96047.47
2018-09-30T00:36:38.362Z,96042.21
2018-09-30T00:39:07.702Z,96044.45
2018-09-30T00:41:36.863Z,96047.48
2018-09-30T00:44:05.945Z,96044.39
2018-09-30T00:46:35.012Z,96046.88
2018-09-30T00:49:04.271Z,96047.17
2018-09-30T00:51:33.452Z,96042.49
2018-09-30T00:54:02.673Z,96038.44
2018-09-30T00:56:31.861Z,96028.41
2018-09-30T00:59:00.933Z,96028.94
2018-09-30T01:01:30.027Z,96030.37
2018-09-30T01:03:59.165Z,96024.19
2018-09-30T01:06:28.226Z,96027.70
2018-09-30T01:08:57.297Z,96020.63
2018-09-30T01:11:26.446Z,96017.11
2018-09-30T01:13:55.593Z,96020.98
2018-09-30T01:16:24.690Z,96021.61
2018-09-30T01:18:53.840Z,96026.09
2018-09-30T01:21:22.984Z,96027.47
2018-09-30T01:23:52.059Z,96024.67
2018-09-30T01:26:21.184Z,96013.78
2018-09-30T01:28:50.282Z,96020.60
2018-09-30T01:31:19.419Z,96013.80
2018-09-30T01:33:48.577Z,96016.44
2018-09-30T01:36:17.702Z,96014.59
2018-09-30T01:38:46.806Z,96020.60
2018-09-30T01:41:16.016Z,96014.69
2018-09-30T01:43:45.148Z,96012.98
2018-09-30T01:46:15.156Z,96016.13
2018-09-30T01:48:44.236Z,96015.33
2018-09-30T01:51:13.308Z,96017.97
2018-09-30T01:53:42.362Z,96009.75
2018-09-30T01:56:11.440Z,96005.58
2018-09-30T01:58:40.669Z,96004.95
2018-09-30T02:01:09.732Z,95995.91
2018-09-30T02:03:38.893Z,95998.73
2018-09-30T02:06:07.952Z,95996.97
2018-09-30T02:08:37.104Z,95995.56
2018-09-30T02:11:06.256Z,95997.99
2018-09-30T02:13:35.373Z,95993.41
2018-09-30T02:16:04.446Z,95994.43
2018-09-30T02:18:33.819Z,96003.09
2018-09-30T02:21:02.903Z,95996.53
2018-09-30T02:23:32.012Z,95994.30
2018-09-30T02:26:01.108Z,95991.22
2018-09-30T02:28:30.235Z,95991.75
2018-09-30T02:30:59.389Z,95992.66
2018-09-30T02:33:28.516Z,95993.16
2018-09-30T02:35:57.565Z,95989.61
2018-09-30T02:38:26.783Z,95985.46
2018-09-30T02:40:55.849Z,95987.11
2018-09-30T02:43:24.908Z,95988.73
2018-09-30T02:45:54.072Z,95987.64
2018-09-30T02:48:23.143Z,95980.26
2018-09-30T02:50:52.201Z,95987.05
2018-09-30T02:53:21.373Z,95984.00
2018-09-30T02:55:50.445Z,95980.98
2018-09-30T02:58:19.656Z,95985.75
2018-09-30T03:00:48.725Z,95987.31
2018-09-30T03:03:17.956Z,95989.90
2018-09-30T03:05:47.081Z,95980.52
2018-09-30T03:08:21.501Z,95979.55
2018-09-30T03:10:50.660Z,95976.37
2018-09-30T03:13:19.848Z,95974.32
2018-09-30T03:15:48.913Z,95966.61
2018-09-30T03:18:17.964Z,95973.17
2018-09-30T03:20:47.024Z,95965.99
2018-09-30T03:23:16.101Z,95967.49
2018-09-30T03:25:45.165Z,95958.50
2018-09-30T03:28:14.310Z,95955.73
2018-09-30T03:30:43.464Z,95955.79
2018-09-30T03:33:12.558Z,95952.25
2018-09-30T03:35:41.612Z,95948.02
2018-09-30T03:38:10.759Z,95942.98
2018-09-30T03:40:39.816Z,95952.02
2018-09-30T03:43:08.896Z,95951.34
2018-09-30T03:45:38.008Z,95943.61
2018-09-30T03:48:07.175Z,95946.47
2018-09-30T03:50:36.239Z,95944.44
2018-09-30T03:53:05.384Z,95947.42
2018-09-30T03:55:34.461Z,95945.61
2018-09-30T03:58:03.673Z,95940.41
2018-09-30T04:00:32.757Z,95944.46
2018-09-30T04:03:01.916Z,95942.30
2018-09-30T04:05:30.989Z,95940.14
2018-09-30T04:08:00.078Z,95933.84
2018-09-30T04:10:29.134Z,95931.57
2018-09-30T04:12:58.291Z,95930.94
2018-09-30T04:15:27.390Z,95927.05
2018-09-30T04:17:56.450Z,95925.20
2018-09-30T04:20:25.533Z,95924.23
2018-09-30T04:22:54.633Z,95923.03
2018-09-30T04:25:23.825Z,95921.11
2018-09-30T04:27:52.908Z,95923.17
2018-09-30T04:30:21.997Z,95918.91
2018-09-30T04:32:51.100Z,95922.94
2018-09-30T04:35:20.184Z,95926.50
2018-09-30T04:37:49.391Z,95927.73
2018-09-30T04:40:18.447Z,95917.94
2018-09-30T04:42:47.500Z,95909.02
2018-09-30T04:45:16.588Z,95915.06
2018-09-30T04:47:45.668Z,95919.73
2018-09-30T04:50:14.708Z,95914.30
2018-09-30T04:52:43.786Z,95914.20
2018-09-30T04:55:12.862Z,95909.31
2018-09-30T04:57:41.991Z,95910.16
2018-09-30T05:00:11.106Z,95915.06
2018-09-30T05:02:40.352Z,95920.95
2018-09-30T05:05:09.443Z,95917.77
2018-09-30T05:07:38.554Z,95915.99
2018-09-30T05:10:07.661Z,95912.52
2018-09-30T05:12:36.838Z,95915.83
2018-09-30T05:15:05.961Z,95911.86
2018-09-30T05:17:35.073Z,95902.01
2018-09-30T05:20:04.243Z,95896.15
2018-09-30T05:22:33.315Z,95901.75
2018-09-30T05:25:02.385Z,95900.39
2018-09-30T05:27:31.649Z,95906.07
2018-09-30T05:30:00.746Z,95903.81
2018-09-30T05:32:29.884Z,95902.01
2018-09-30T05:34:58.996Z,95900.63
2018-09-30T05:37:28.072Z,95899.75
2018-09-30T05:39:57.230Z,95911.11
2018-09-30T05:42:26.298Z,95904.70
2018-09-30T05:44:55.384Z,95903.73
2018-09-30T05:47:24.569Z,95898.90
2018-09-30T05:49:53.634Z,95898.40
2018-09-30T05:52:22.777Z,95900.22
2018-09-30T05:54:51.842Z,95904.40
2018-09-30T05:57:20.940Z,95896.09
2018-09-30T05:59:50.152Z,95898.28
2018-09-30T06:02:19.236Z,95905.56
2018-09-30T06:04:48.334Z,95900.08
2018-09-30T06:07:17.492Z,95909.92
2018-09-30T06:09:46.587Z,95905.53
2018-09-30T06:12:15.676Z,95905.84
2018-09-30T06:14:44.836Z,95908.79
2018-09-30T06:17:13.927Z,95903.39
2018-09-30T06:19:43.092Z,95898.42
2018-09-30T06:22:12.217Z,95889.05
2018-09-30T06:24:41.344Z,95900.86
2018-09-30T06:27:10.505Z,95895.52
2018-09-30T06:29:39.575Z,95891.63
2018-09-30T06:32:08.684Z,95894.72
2018-09-30T06:34:37.810Z,95885.83
2018-09-30T06:37:06.958Z,95879.94
2018-09-30T06:39:36.003Z,95882.48
2018-09-30T06:42:05.189Z,95882.31
2018-09-30T06:44:34.397Z,95885.61
2018-09-30T06:47:03.620Z,95888.69
2018-09-30T06:49:32.729Z,95891.21
2018-09-30T06:52:01.893Z,95890.50
2018-09-30T06:54:31.324Z,95888.36
2018-09-30T06:57:00.620Z,95888.39
2018-09-30T06:59:29.718Z,95883.00
2018-09-30T07:01:58.808Z,95886.33
2018-09-30T07:04:27.887Z,95889.93
2018-09-30T07:06:57.013Z,95888.56
2018-09-30T07:09:26.081Z,95884.52
2018-09-30T07:11:55.144Z,95881.31
2018-09-30T07:14:24.375Z,95880.77
2018-09-30T07:16:53.465Z,95882.14
2018-09-30T07:19:22.594Z,95883.84
2018-09-30T07:21:51.696Z,95874.59
2018-09-30T07:24:20.881Z,95875.38
2018-09-30T07:26:50.016Z,95875.67
2018-09-30T07:29:19.115Z,95875.66
2018-09-30T07:31:48.268Z,95876.48
2018-09-30T07:34:17.400Z,95871.04
2018-09-30T07:36:46.503Z,95882.18
2018-09-30T07:39:15.614Z,95876.20
2018-09-30T07:41:44.732Z,95884.63
2018-09-30T07:44:13.836Z,95881.89
2018-09-30T07:46:43.035Z,95885.67
2018-09-30T07:49:12.115Z,95888.11
2018-09-30T07:51:41.224Z,95890.55
2018-09-30T07:54:10.303Z,95883.17
2018-09-30T07:56:39.378Z,95877.69
2018-09-30T07:59:08.736Z,95877.67
2018-09-30T08:01:37.859Z,95878.19
2018-09-30T08:04:07.163Z,95875.72
2018-09-30T08:06:36.375Z,95881.12
2018-09-30T08:09:07.565Z,95877.01
2018-09-30T08:11:36.740Z,95872.25
2018-09-30T08:14:05.960Z,95865.95
2018-09-30T08:16:35.140Z,95867.24
2018-09-30T08:19:04.215Z,95870.45
2018-09-30T08:21:33.411Z,95879.45
2018-09-30T08:24:02.634Z,95880.72
2018-09-30T08:26:31.793Z,95876.87
2018-09-30T08:29:00.998Z,95884.76
2018-09-30T08:31:30.111Z,95869.35
2018-09-30T08:33:59.637Z,95870.39
2018-09-30T08:36:28.789Z,95875.34
2018-09-30T08:38:57.978Z,95876.95
2018-09-30T08:41:27.068Z,95875.89
2018-09-30T08:43:56.318Z,95881.77
2018-09-30T08:46:25.389Z,95880.05
2018-09-30T08:48:54.516Z,95877.19
2018-09-30T08:51:24.021Z,95874.86
2018-09-30T08:53:53.138Z,95871.03
2018-09-30T08:56:22.277Z,95869.80
2018-09-30T08:58:51.489Z,95871.84
2018-09-30T09:01:20.657Z,95868.84
2018-09-30T09:03:49.757Z,95872.55
2018-09-30T09:06:18.876Z,95871.09
2018-09-30T09:08:47.998Z,95873.58
2018-09-30T09:11:17.092Z,95873.37
2018-09-30T09:13:46.240Z,95864.70
2018-09-30T09:16:15.340Z,95868.48
2018-09-30T09:18:44.449Z,95864.99
2018-09-30T09:21:13.657Z,95862.98
2018-09-30T09:23:42.750Z,95864.06
2018-09-30T09:26:11.950Z,95854.64
2018-09-30T09:28:41.040Z,95854.97
2018-09-30T09:31:10.168Z,95850.46
2018-09-30T09:33:39.253Z,95849.28
2018-09-30T09:36:08.412Z,95852.88
2018-09-30T09:38:37.515Z,95848.36
2018-09-30T09:41:06.606Z,95846.36
2018-09-30T09:43:35.792Z,95844.31
2018-09-30T09:46:05.003Z,95848.31
2018-09-30T09:48:34.094Z,95840.09
2018-09-30T09:51:03.659Z,95835.52
2018-09-30T09:53:32.828Z,95844.56
2018-09-30T09:56:01.916Z,95841.67
2018-09-30T09:58:31.115Z,95837.55
2018-09-30T10:01:04.431Z,95834.67
2018-09-30T10:03:33.531Z,95828.27
2018-09-30T10:06:02.747Z,95833.98
2018-09-30T10:08:31.866Z,95823.50
2018-09-30T10:11:00.977Z,95826.21
2018-09-30T10:13:30.092Z,95821.05
2018-09-30T10:15:59.345Z,95814.64
2018-09-30T10:18:28.559Z,95817.66
2018-09-30T10:20:57.651Z,95805.58
2018-09-30T10:23:26.739Z,95815.13
2018-09-30T10:25:56.034Z,95807.38
2018-09-30T10:28:25.153Z,95806.47
2018-09-30T10:30:54.325Z,95806.85
2018-09-30T10:33:23.503Z,95796.48
2018-09-30T10:35:52.597Z,95801.75
2018-09-30T10:38:21.779Z,95792.77
2018-09-30T10:40:51.014Z,95785.37
2018-09-30T10:43:20.108Z,95784.44
2018-09-30T10:45:49.311Z,95775.50
2018-09-30T10:48:18.415Z,95770.37
2018-09-30T10:50:47.512Z,95764.25
2018-09-30T10:53:16.602Z,95755.45
2018-09-30T10:55:45.700Z,95753.52
2018-09-30T10:58:14.864Z,95753.09
2018-09-30T11:00:43.928Z,95749.53
2018-09-30T11:03:13.100Z,95748.24
2018-09-30T11:05:42.232Z,95749.77
2018-09-30T11:08:11.342Z,95739.76
2018-09-30T11:10:40.465Z,95732.16
2018-09-30T11:13:09.569Z,95735.48
2018-09-30T11:15:38.775Z,95734.30
2018-09-30T11:18:07.985Z,95727.06
2018-09-30T11:20:37.164Z,95724.92
2018-09-30T11:23:06.279Z,95725.91
2018-09-30T11:25:35.467Z,95718.67
2018-09-30T11:28:04.644Z,95712.25
2018-09-30T11:30:33.751Z,95712.14
2018-09-30T11:33:02.863Z,95706.13
2018-09-30T11:35:31.951Z,95708.83
2018-09-30T11:38:01.139Z,95687.91
2018-09-30T11:40:30.346Z,95694.43
2018-09-30T11:42:59.561Z,95704.09
2018-09-30T11:45:28.735Z,95708.96
2018-09-30T11:47:57.939Z,95701.58
2018-09-30T11:50:27.113Z,95697.71
2018-09-30T11:52:56.196Z,95696.66
2018-09-30T11:55:25.329Z,95695.19
2018-09-30T11:57:54.414Z,95690.34
2018-09-30T12:00:23.504Z,95684.23
2018-09-30T12:02:52.605Z,95680.52
2018-09-30T12:05:21.737Z,95667.57
2018-09-30T12:07:50.985Z,95667.91
2018-09-30T12:10:20.066Z,95661.44
2018-09-30T12:12:49.189Z,95649.03
2018-09-30T12:15:18.380Z,95655.70
2018-09-30T12:17:47.592Z,95653.72
2018-09-30T12:20:16.676Z,95645.58
2018-09-30T12:22:45.764Z,95646.39
2018-09-30T12:25:14.984Z,95641.20
2018-09-30T12:27:44.069Z,95638.23
2018-09-30T12:30:13.160Z,95634.98
2018-09-30T12:32:42.290Z,95637.38
2018-09-30T12:35:11.459Z,95628.19
2018-09-30T12:37:40.727Z,95628.23
2018-09-30T12:40:09.903Z,95625.91
2018-09-30T12:42:39.032Z,95624.93
2018-09-30T12:45:08.143Z,95621.25
2018-09-30T12:47:37.243Z,95613.28
2018-09-30T12:50:06.369Z,95615.88
2018-09-30T12:52:35.536Z,95614.25
2018-09-30T12:55:04.777Z,95608.69
2018-09-30T12:57:33.925Z,95603.05
2018-09-30T13:00:03.043Z,95600.09
2018-09-30T13:02:32.260Z,95605.56
2018-09-30T13:05:01.345Z,95597.27
2018-09-30T13:07:30.583Z,95594.80
2018-09-30T13:09:59.812Z,95590.95
2018-09-30T13:12:28.892Z,95594.41
2018-09-30T13:14:57.983Z,95592.83
2018-09-30T13:17:27.261Z,95592.66
2018-09-30T13:19:56.501Z,95583.59
2018-09-30T13:22:25.558Z,95579.09
2018-09-30T13:24:54.746Z,95581.42
2018-09-30T13:27:23.872Z,95577.49
2018-09-30T13:29:52.987Z,95571.91
2018-09-30T13:32:22.134Z,95579.13
2018-09-30T13:34:51.264Z,95568.83
2018-09-30T13:37:20.596Z,95569.06
2018-09-30T13:39:49.957Z,95555.33
2018-09-30T13:42:19.274Z,95571.55
2018-09-30T13:44:48.353Z,95564.15
2018-09-30T13:47:17.468Z,95564.57
2018-09-30T13:49:46.574Z,95557.64
2018-09-30T13:52:15.748Z,95558.39
2018-09-30T13:54:44.811Z,95546.38
2018-09-30T13:57:13.988Z,95554.42
2018-09-30T13:59:43.155Z,95548.73
2018-09-30T14:02:12.238Z,95545.34
2018-09-30T14:04:41.349Z,95539.16
2018-09-30T14:07:10.543Z,95531.88
2018-09-30T14:09:39.653Z,95522.97
2018-09-30T14:12:08.827Z,95525.88
2018-09-30T14:14:38.029Z,95523.25
2018-09-30T14:17:07.272Z,95512.95
2018-09-30T14:19:36.340Z,95513.36
2018-09-30T14:22:05.531Z,95512.48
2018-09-30T14:24:34.741Z,95514.44
2018-09-30T14:27:03.913Z,95505.14
2018-09-30T14:29:32.901Z,95501.62
2018-09-30T14:32:02.535Z,95505.70
2018-09-30T14:34:31.799Z,95501.86
2018-09-30T14:37:00.908Z,95498.23
2018-09-30T14:39:30.000Z,95495.52
2018-09-30T14:41:59.251Z,95494.29
2018-09-30T14:44:28.324Z,95485.91
2018-09-30T14:46:57.528Z,95487.45
2018-09-30T14:49:26.632Z,95478.02
2018-09-30T14:51:55.708Z,95482.94
2018-09-30T14:54:24.836Z,95478.95
2018-09-30T14:56:53.965Z,95473.16
2018-09-30T14:59:23.032Z,95473.35
2018-09-30T15:01:52.296Z,95468.39
2018-09-30T15:04:21.492Z,95465.33
2018-09-30T15:06:50.660Z,95463.44
2018-09-30T15:09:19.900Z,95464.02
2018-09-30T15:11:49.150Z,95461.19
2018-09-30T15:14:18.557Z,95470.11
2018-09-30T15:16:47.700Z,95459.84
2018-09-30T15:19:16.859Z,95458.50
2018-09-30T15:21:46.088Z,95452.44
2018-09-30T15:24:15.341Z,95452.38
2018-09-30T15:26:44.492Z,95458.76
2018-09-30T15:29:13.578Z,95457.03
2018-09-30T15:31:42.675Z,95454.23
2018-09-30T15:34:11.763Z,95448.81
2018-09-30T15:36:40.851Z,95444.60
2018-09-30T15:39:11.820Z,95438.13
2018-09-30T15:41:41.315Z,95440.23
2018-09-30T15:44:11.564Z,95439.65
2018-09-30T15:46:40.682Z,95442.80
2018-09-30T15:49:09.910Z,95443.72
2018-09-30T15:51:39.120Z,95445.88
2018-09-30T15:54:08.481Z,95446.61
2018-09-30T15:56:37.648Z,95439.59
2018-09-30T15:59:06.797Z,95435.23
2018-09-30T16:01:35.892Z,95432.64
2018-09-30T16:04:04.984Z,95436.83
2018-09-30T16:06:34.062Z,95431.12
2018-09-30T16:09:03.455Z,95433.22
2018-09-30T16:11:32.532Z,95434.84
2018-09-30T16:14:01.754Z,95428.33
2018-09-30T16:16:30.862Z,95432.80
2018-09-30T16:18:59.968Z,95430.12
2018-09-30T16:21:29.123Z,95425.38
2018-09-30T16:23:58.158Z,95425.59
2018-09-30T16:26:27.373Z,95428.95
2018-09-30T16:28:56.491Z,95423.56
2018-09-30T16:31:25.572Z,95419.48
2018-09-30T16:33:54.693Z,95425.42
2018-09-30T16:36:23.825Z,95424.14
2018-09-30T16:38:53.093Z,95422.95
2018-09-30T16:41:22.251Z,95421.70
2018-09-30T16:43:51.433Z,95426.20
2018-09-30T16:46:20.625Z,95427.83
2018-09-30T16:48:50.341Z,95432.56
2018-09-30T16:51:19.543Z,95429.44
2018-09-30T16:53:48.725Z,95436.02
2018-09-30T16:56:17.818Z,95431.62
2018-09-30T16:58:46.929Z,95433.55
2018-09-30T17:01:16.033Z,95441.90
2018-09-30T17:03:45.220Z,95434.98
2018-09-30T17:06:14.595Z,95442.77
2018-09-30T17:08:43.830Z,95441.06
2018-09-30T17:11:12.989Z,95441.95
2018-09-30T17:13:42.109Z,95443.63
2018-09-30T17:16:11.367Z,95441.64
2018-09-30T17:18:40.516Z,95438.05
2018-09-30T17:21:09.621Z,95439.24
2018-09-30T17:23:38.817Z,95443.72
2018-09-30T17:26:07.940Z,95432.36
2018-09-30T17:28:37.240Z,95438.27
2018-09-30T17:31:06.581Z,95443.11
2018-09-30T17:33:35.695Z,95443.78
2018-09-30T17:36:04.805Z,95439.04
2018-09-30T17:38:33.987Z,95443.27
2018-09-30T17:41:03.171Z,95443.41
2018-09-30T17:43:32.387Z,95446.17
2018-09-30T17:46:01.563Z,95447.43
2018-09-30T17:48:30.675Z,95445.69
2018-09-30T17:50:59.861Z,95446.27
2018-09-30T17:53:28.987Z,95438.91
2018-09-30T17:55:58.199Z,95438.56
2018-09-30T17:58:27.335Z,95439.63
2018-09-30T18:00:56.435Z,95436.73
2018-09-30T18:03:25.551Z,95430.86
2018-09-30T18:05:54.649Z,95433.06
2018-09-30T18:08:23.840Z,95439.08
2018-09-30T18:10:52.947Z,95444.92
2018-09-30T18:13:22.047Z,95439.91
2018-09-30T18:15:51.137Z,95439.92
2018-09-30T18:18:20.449Z,95438.88
2018-09-30T18:20:49.611Z,95439.75
2018-09-30T18:23:18.705Z,95437.98
2018-09-30T18:25:47.797Z,95437.58
2018-09-30T18:28:16.899Z,95433.38
2018-09-30T18:30:46.010Z,95436.44
2018-09-30T18:33:15.097Z,95435.92
2018-09-30T18:35:44.200Z,95432.03
2018-09-30T18:38:13.293Z,95428.95
2018-09-30T18:40:47.401Z,95422.11
2018-09-30T18:43:16.602Z,95422.19
2018-09-30T18:45:45.899Z,95420.53
2018-09-30T18:48:14.981Z,95417.84
2018-09-30T18:50:44.189Z,95423.77
2018-09-30T18:53:13.401Z,95413.39
2018-09-30T18:55:42.600Z,95414.42
2018-09-30T18:58:11.705Z,95414.26
2018-09-30T19:00:40.878Z,95414.91
2018-09-30T19:03:10.015Z,95411.13
2018-09-30T19:05:39.201Z,95408.94
2018-09-30T19:08:08.369Z,95412.55
2018-09-30T19:10:37.553Z,95406.45
2018-09-30T19:13:06.653Z,95403.70
2018-09-30T19:15:35.753Z,95402.20
2018-09-30T19:18:04.937Z,95399.71
2018-09-30T19:20:33.996Z,95399.97
2018-09-30T19:23:03.153Z,95397.66
2018-09-30T19:25:32.356Z,95389.76
2018-09-30T19:28:01.566Z,95395.25
2018-09-30T19:30:30.822Z,95385.29
2018-09-30T19:32:59.942Z,95385.77
2018-09-30T19:35:29.068Z,95388.13
2018-09-30T19:37:58.272Z,95385.25
2018-09-30T19:40:27.359Z,95381.00
2018-09-30T19:42:56.502Z,95381.26
2018-09-30T19:45:25.596Z,95382.02
2018-09-30T19:47:54.700Z,95379.84
2018-09-30T19:50:23.804Z,95372.34
2018-09-30T19:52:52.962Z,95365.84
2018-09-30T19:55:22.043Z,95362.66
2018-09-30T19:57:51.203Z,95365.16
2018-09-30T20:00:20.303Z,95370.97
2018-09-30T20:02:49.409Z,95367.45
2018-09-30T20:05:18.512Z,95358.21
2018-09-30T20:07:47.715Z,95359.31
2018-09-30T20:10:16.883Z,95361.88
2018-09-30T20:12:46.100Z,95356.73
2018-09-30T20:15:15.212Z,95353.67
2018-09-30T20:17:44.386Z,95352.86
2018-09-30T20:20:13.583Z,95348.62
2018-09-30T20:22:42.783Z,95346.45
2018-09-30T20:25:11.869Z,95351.63
2018-09-30T20:27:41.095Z,95350.20
2018-09-30T20:30:10.261Z,95349.01
2018-09-30T20:32:39.369Z,95345.05
2018-09-30T20:35:09.039Z,95338.69
2018-09-30T20:37:38.144Z,95334.95
2018-09-30T20:40:07.519Z,95340.60
2018-09-30T20:42:36.632Z,95335.30
2018-09-30T20:45:05.845Z,95335.55
2018-09-30T20:47:35.200Z,95328.61
2018-09-30T20:50:04.418Z,95327.09
2018-09-30T20:52:33.532Z,95321.98
2018-09-30T20:55:02.684Z,95321.98
2018-09-30T20:57:31.828Z,95318.25
2018-09-30T21:00:00.956Z,95313.90
2018-09-30T21:02:30.120Z,95311.14
2018-09-30T21:05:02.481Z,95311.85
2018-09-30T21:07:31.589Z,95317.61
2018-09-30T21:10:00.830Z,95315.27
2018-09-30T21:12:29.927Z,95316.17
2018-09-30T21:18:08.912Z,95312.54
2018-09-30T21:20:38.032Z,95310.81
2018-09-30T21:23:07.139Z,95304.33
2018-09-30T21:25:36.255Z,95296.10
2018-09-30T21:28:05.584Z,95297.53
2018-09-30T21:30:34.764Z,95292.69
2018-09-30T21:33:03.983Z,95289.98
2018-09-30T21:35:33.143Z,95288.78
2018-09-30T21:38:02.381Z,95281.32
2018-09-30T21:40:31.539Z,95276.19
2018-09-30T21:43:00.679Z,95269.70
2018-09-30T21:45:29.789Z,95263.71
2018-09-30T21:47:58.953Z,95259.94
2018-09-30T21:50:28.052Z,95264.91
2018-09-30T21:52:57.161Z,95259.52
2018-09-30T21:55:26.329Z,95263.92
2018-09-30T21:57:55.515Z,95253.25
2018-09-30T22:00:29.964Z,95254.53
2018-09-30T22:02:59.084Z,95248.41
2018-09-30T22:05:28.199Z,95241.94
2018-09-30T22:07:57.347Z,95245.19
2018-09-30T22:10:26.544Z,95244.16
2018-09-30T22:12:55.933Z,95240.74
2018-09-30T22:15:25.040Z,95242.67
2018-09-30T22:17:54.179Z,95244.03
2018-09-30T22:20:23.676Z,95240.34
2018-09-30T22:22:52.815Z,95235.77
2018-09-30T22:25:21.911Z,95234.09
2018-09-30T22:27:51.967Z,95227.70
2018-09-30T22:30:21.088Z,95229.47
2018-09-30T22:32:50.203Z,95226.08
2018-09-30T22:35:19.720Z,95225.56
2018-09-30T22:37:48.840Z,95224.55
2018-09-30T22:40:18.157Z,95215.37
2018-09-30T22:42:47.148Z,95215.88
2018-09-30T22:45:16.249Z,95211.99
2018-09-30T22:47:45.448Z,95210.73
2018-09-30T22:50:14.565Z,95208.98
2018-09-30T22:52:43.654Z,95216.31
2018-09-30T22:55:12.821Z,95210.88
2018-09-30T22:57:42.012Z,95208.26
2018-09-30T23:00:11.134Z,95216.40
2018-09-30T23:02:40.311Z,95213.27
2018-09-30T23:05:10.208Z,95210.57
2018-09-30T23:07:39.356Z,95214.69
2018-09-30T23:10:10.513Z,95211.55
2018-09-30T23:12:39.612Z,95209.59
2018-09-30T23:15:08.856Z,95203.93
2018-09-30T23:17:37.956Z,95210.61
2018-09-30T23:20:11.989Z,95212.29
2018-09-30T23:22:41.076Z,95213.53
2018-09-30T23:25:10.344Z,95209.74
2018-09-30T23:27:39.512Z,95207.14
2018-09-30T23:30:08.808Z,95203.59
2018-09-30T23:32:38.500Z,95204.02
2018-09-30T23:35:07.765Z,95199.43
2018-09-30T23:37:36.892Z,95205.80
2018-09-30T23:40:06.518Z,95199.61
2018-09-30T23:42:35.992Z,95193.87
2018-09-30T23:45:05.725Z,95197.47
2018-09-30T23:47:34.966Z,95197.13
2018-09-30T23:50:04.188Z,95197.42
2018-09-30T23:52:33.332Z,95190.56
2018-09-30T23:55:02.464Z,95193.20
2018-09-30T23:57:31.548Z,95193.25
